sensor_id;sensor_type;location;lat;lon;timestamp;pressure;altitude;pressure_sealevel;temperature;humidity
40872;BME280;26591;43.264;26.940;2024-02-28T00:00:12;99465.66;;;7.41;73.68
40872;BME280;26591;43.264;26.940;2024-02-28T00:02:38;99473.56;;;7.51;72.85
40872;BME280;26591;43.264;26.940;2024-02-28T00:05:03;99480.38;;;7.53;72.82
40872;BME280;26591;43.264;26.940;2024-02-28T00:07:29;99477.56;;;7.45;72.71
40872;BME280;26591;43.264;26.940;2024-02-28T00:09:56;99477.00;;;7.41;73.09
40872;BME280;26591;43.264;26.940;2024-02-28T00:12:25;99472.97;;;7.27;73.51
40872;BME280;26591;43.264;26.940;2024-02-28T00:14:53;99469.50;;;7.27;72.93
40872;BME280;26591;43.264;26.940;2024-02-28T00:17:18;99462.81;;;7.13;73.26
40872;BME280;26591;43.264;26.940;2024-02-28T00:19:44;99465.16;;;6.75;73.52
40872;BME280;26591;43.264;26.940;2024-02-28T00:22:09;99456.25;;;6.66;73.50
40872;BME280;26591;43.264;26.940;2024-02-28T00:24:35;99467.06;;;6.73;74.29
40872;BME280;26591;43.264;26.940;2024-02-28T00:27:01;99467.03;;;6.42;74.54
40872;BME280;26591;43.264;26.940;2024-02-28T00:29:26;99456.91;;;6.37;75.14
40872;BME280;26591;43.264;26.940;2024-02-28T00:31:52;99459.59;;;6.26;75.66
40872;BME280;26591;43.264;26.940;2024-02-28T00:34:18;99466.16;;;6.32;75.90
40872;BME280;26591;43.264;26.940;2024-02-28T00:36:44;99456.31;;;6.34;75.98
40872;BME280;26591;43.264;26.940;2024-02-28T00:39:10;99451.03;;;6.24;76.46
40872;BME280;26591;43.264;26.940;2024-02-28T00:41:36;99456.06;;;6.16;76.14
40872;BME280;26591;43.264;26.940;2024-02-28T00:44:02;99453.44;;;6.16;76.79
40872;BME280;26591;43.264;26.940;2024-02-28T00:46:28;99446.91;;;6.31;76.59
40872;BME280;26591;43.264;26.940;2024-02-28T00:48:53;99452.22;;;6.20;76.98
40872;BME280;26591;43.264;26.940;2024-02-28T00:51:19;99452.94;;;6.22;76.71
40872;BME280;26591;43.264;26.940;2024-02-28T00:53:44;99455.09;;;6.17;77.63
40872;BME280;26591;43.264;26.940;2024-02-28T00:56:10;99461.56;;;6.34;77.46
40872;BME280;26591;43.264;26.940;2024-02-28T00:58:35;99469.28;;;6.47;77.46
40872;BME280;26591;43.264;26.940;2024-02-28T01:01:01;99467.38;;;6.28;77.19
40872;BME280;26591;43.264;26.940;2024-02-28T01:03:26;99466.50;;;6.27;77.77
40872;BME280;26591;43.264;26.940;2024-02-28T01:05:52;99468.31;;;6.26;77.63
40872;BME280;26591;43.264;26.940;2024-02-28T01:08:17;99463.94;;;6.37;77.39
40872;BME280;26591;43.264;26.940;2024-02-28T01:10:44;99467.53;;;6.36;77.01
40872;BME280;26591;43.264;26.940;2024-02-28T01:13:40;99460.44;;;6.26;77.21
40872;BME280;26591;43.264;26.940;2024-02-28T01:16:06;99452.66;;;6.25;77.46
40872;BME280;26591;43.264;26.940;2024-02-28T01:18:32;99457.91;;;6.25;77.37
40872;BME280;26591;43.264;26.940;2024-02-28T01:20:57;99455.44;;;6.23;77.58
40872;BME280;26591;43.264;26.940;2024-02-28T01:23:23;99456.06;;;6.16;77.57
40872;BME280;26591;43.264;26.940;2024-02-28T01:25:48;99454.66;;;6.33;77.63
40872;BME280;26591;43.264;26.940;2024-02-28T01:28:14;99458.50;;;6.29;76.96
40872;BME280;26591;43.264;26.940;2024-02-28T01:30:39;99462.22;;;6.26;77.23
40872;BME280;26591;43.264;26.940;2024-02-28T01:33:05;99456.28;;;6.24;76.76
40872;BME280;26591;43.264;26.940;2024-02-28T01:35:30;99464.28;;;6.22;77.28
40872;BME280;26591;43.264;26.940;2024-02-28T01:37:56;99463.31;;;6.23;77.27
40872;BME280;26591;43.264;26.940;2024-02-28T01:40:21;99464.91;;;6.36;76.68
40872;BME280;26591;43.264;26.940;2024-02-28T01:42:47;99461.63;;;6.22;77.03
40872;BME280;26591;43.264;26.940;2024-02-28T01:45:13;99452.00;;;6.11;77.56
40872;BME280;26591;43.264;26.940;2024-02-28T01:47:41;99456.84;;;6.28;77.14
40872;BME280;26591;43.264;26.940;2024-02-28T01:50:07;99456.97;;;6.26;77.20
40872;BME280;26591;43.264;26.940;2024-02-28T01:52:33;99457.16;;;6.34;77.45
40872;BME280;26591;43.264;26.940;2024-02-28T01:54:59;99456.72;;;6.29;77.03
40872;BME280;26591;43.264;26.940;2024-02-28T01:57:24;99461.63;;;6.44;76.75
40872;BME280;26591;43.264;26.940;2024-02-28T01:59:51;99461.00;;;6.30;77.22
40872;BME280;26591;43.264;26.940;2024-02-28T02:02:18;99462.03;;;6.18;76.93
40872;BME280;26591;43.264;26.940;2024-02-28T02:04:43;99457.47;;;6.20;76.98
40872;BME280;26591;43.264;26.940;2024-02-28T02:07:09;99461.63;;;6.01;77.34
40872;BME280;26591;43.264;26.940;2024-02-28T02:09:34;99452.66;;;5.92;77.43
40872;BME280;26591;43.264;26.940;2024-02-28T02:12:00;99459.72;;;5.92;77.25
40872;BME280;26591;43.264;26.940;2024-02-28T02:14:26;99461.25;;;5.94;77.14
40872;BME280;26591;43.264;26.940;2024-02-28T02:16:53;99464.75;;;5.95;77.17
40872;BME280;26591;43.264;26.940;2024-02-28T02:19:19;99453.06;;;5.88;77.24
40872;BME280;26591;43.264;26.940;2024-02-28T02:21:51;99465.16;;;5.79;77.61
40872;BME280;26591;43.264;26.940;2024-02-28T02:24:17;99461.13;;;5.63;77.69
40872;BME280;26591;43.264;26.940;2024-02-28T02:26:43;99461.13;;;5.63;78.05
40872;BME280;26591;43.264;26.940;2024-02-28T02:29:11;99468.09;;;5.53;78.40
40872;BME280;26591;43.264;26.940;2024-02-28T02:31:36;99466.38;;;5.63;78.37
40872;BME280;26591;43.264;26.940;2024-02-28T02:34:01;99473.00;;;5.46;79.12
40872;BME280;26591;43.264;26.940;2024-02-28T02:36:27;99472.16;;;5.46;78.64
40872;BME280;26591;43.264;26.940;2024-02-28T02:38:52;99471.31;;;5.45;79.28
40872;BME280;26591;43.264;26.940;2024-02-28T02:41:18;99478.25;;;5.46;78.44
40872;BME280;26591;43.264;26.940;2024-02-28T02:43:49;99475.50;;;5.37;79.31
40872;BME280;26591;43.264;26.940;2024-02-28T02:46:14;99474.56;;;5.15;79.58
40872;BME280;26591;43.264;26.940;2024-02-28T02:48:40;99476.50;;;5.24;79.71
40872;BME280;26591;43.264;26.940;2024-02-28T02:51:08;99475.53;;;5.02;80.37
40872;BME280;26591;43.264;26.940;2024-02-28T02:53:33;99482.69;;;5.00;80.99
40872;BME280;26591;43.264;26.940;2024-02-28T02:55:59;99473.88;;;5.01;81.68
40872;BME280;26591;43.264;26.940;2024-02-28T02:58:24;99484.34;;;5.01;82.35
40872;BME280;26591;43.264;26.940;2024-02-28T03:00:50;99489.97;;;5.19;81.43
40872;BME280;26591;43.264;26.940;2024-02-28T03:03:16;99481.75;;;5.13;82.18
40872;BME280;26591;43.264;26.940;2024-02-28T03:05:41;99484.63;;;5.10;81.66
40872;BME280;26591;43.264;26.940;2024-02-28T03:08:07;99493.19;;;5.12;82.04
40872;BME280;26591;43.264;26.940;2024-02-28T03:10:32;99494.63;;;4.93;82.28
40872;BME280;26591;43.264;26.940;2024-02-28T03:13:00;99496.41;;;4.93;81.72
40872;BME280;26591;43.264;26.940;2024-02-28T03:15:27;99489.84;;;4.76;82.60
40872;BME280;26591;43.264;26.940;2024-02-28T03:17:52;99491.28;;;4.80;82.94
40872;BME280;26591;43.264;26.940;2024-02-28T03:20:17;99492.09;;;4.57;83.03
40872;BME280;26591;43.264;26.940;2024-02-28T03:22:43;99490.66;;;4.65;83.64
40872;BME280;26591;43.264;26.940;2024-02-28T03:25:09;99493.06;;;4.79;83.46
40872;BME280;26591;43.264;26.940;2024-02-28T03:27:34;99490.78;;;4.74;83.48
40872;BME280;26591;43.264;26.940;2024-02-28T03:30:00;99488.88;;;4.65;83.82
40872;BME280;26591;43.264;26.940;2024-02-28T03:32:25;99494.13;;;4.77;83.78
40872;BME280;26591;43.264;26.940;2024-02-28T03:34:51;99492.94;;;4.69;84.25
40872;BME280;26591;43.264;26.940;2024-02-28T03:37:16;99488.50;;;4.58;84.53
40872;BME280;26591;43.264;26.940;2024-02-28T03:39:42;99495.94;;;4.76;84.57
40872;BME280;26591;43.264;26.940;2024-02-28T03:42:07;99495.44;;;4.71;84.25
40872;BME280;26591;43.264;26.940;2024-02-28T03:44:33;99509.41;;;4.83;84.16
40872;BME280;26591;43.264;26.940;2024-02-28T03:46:58;99509.72;;;4.78;84.33
40872;BME280;26591;43.264;26.940;2024-02-28T03:49:24;99511.44;;;4.91;84.13
40872;BME280;26591;43.264;26.940;2024-02-28T03:51:49;99509.50;;;4.93;83.57
40872;BME280;26591;43.264;26.940;2024-02-28T03:54:15;99505.13;;;4.93;84.23
40872;BME280;26591;43.264;26.940;2024-02-28T03:56:41;99517.06;;;5.09;83.60
40872;BME280;26591;43.264;26.940;2024-02-28T03:59:06;99508.34;;;4.97;82.87
40872;BME280;26591;43.264;26.940;2024-02-28T04:01:32;99513.34;;;5.11;83.46
40872;BME280;26591;43.264;26.940;2024-02-28T04:03:57;99508.09;;;5.00;83.18
40872;BME280;26591;43.264;26.940;2024-02-28T04:06:23;99511.66;;;5.10;82.04
40872;BME280;26591;43.264;26.940;2024-02-28T04:08:49;99509.03;;;5.10;82.27
40872;BME280;26591;43.264;26.940;2024-02-28T04:11:14;99513.34;;;5.00;82.14
40872;BME280;26591;43.264;26.940;2024-02-28T04:13:40;99524.91;;;4.97;82.20
40872;BME280;26591;43.264;26.940;2024-02-28T04:16:07;99514.88;;;4.91;81.93
40872;BME280;26591;43.264;26.940;2024-02-28T04:18:33;99516.78;;;4.89;82.48
40872;BME280;26591;43.264;26.940;2024-02-28T04:20:59;99519.63;;;4.86;82.29
40872;BME280;26591;43.264;26.940;2024-02-28T04:23:24;99525.69;;;4.64;83.00
40872;BME280;26591;43.264;26.940;2024-02-28T04:25:50;99523.34;;;4.83;82.75
40872;BME280;26591;43.264;26.940;2024-02-28T04:28:15;99524.66;;;4.78;83.40
40872;BME280;26591;43.264;26.940;2024-02-28T04:30:41;99519.84;;;4.60;83.29
40872;BME280;26591;43.264;26.940;2024-02-28T04:33:06;99521.00;;;4.45;84.11
40872;BME280;26591;43.264;26.940;2024-02-28T04:35:32;99526.53;;;4.64;84.14
40872;BME280;26591;43.264;26.940;2024-02-28T04:37:59;99518.81;;;4.74;83.96
40872;BME280;26591;43.264;26.940;2024-02-28T04:40:24;99519.84;;;4.71;84.35
40872;BME280;26591;43.264;26.940;2024-02-28T04:42:50;99527.03;;;4.69;83.90
40872;BME280;26591;43.264;26.940;2024-02-28T04:45:15;99522.97;;;4.77;84.16
40872;BME280;26591;43.264;26.940;2024-02-28T04:47:41;99519.53;;;4.87;83.80
40872;BME280;26591;43.264;26.940;2024-02-28T04:50:06;99529.66;;;4.81;83.92
40872;BME280;26591;43.264;26.940;2024-02-28T04:52:33;99527.50;;;4.86;84.23
40872;BME280;26591;43.264;26.940;2024-02-28T04:54:58;99527.19;;;4.91;83.51
40872;BME280;26591;43.264;26.940;2024-02-28T05:00:46;99540.41;;;5.00;83.90
40872;BME280;26591;43.264;26.940;2024-02-28T05:03:11;99537.69;;;5.02;83.40
40872;BME280;26591;43.264;26.940;2024-02-28T05:05:37;99545.19;;;5.18;83.07
40872;BME280;26591;43.264;26.940;2024-02-28T05:08:02;99544.13;;;5.21;83.60
40872;BME280;26591;43.264;26.940;2024-02-28T05:10:28;99544.81;;;5.11;83.88
40872;BME280;26591;43.264;26.940;2024-02-28T05:12:53;99537.44;;;5.16;83.50
40872;BME280;26591;43.264;26.940;2024-02-28T05:15:19;99545.22;;;5.29;83.63
40872;BME280;26591;43.264;26.940;2024-02-28T05:17:45;99552.59;;;5.24;83.40
40872;BME280;26591;43.264;26.940;2024-02-28T05:20:11;99553.44;;;5.47;83.81
40872;BME280;26591;43.264;26.940;2024-02-28T05:22:36;99554.00;;;5.51;84.25
40872;BME280;26591;43.264;26.940;2024-02-28T05:25:02;99560.66;;;6.01;84.51
40872;BME280;26591;43.264;26.940;2024-02-28T05:27:27;99561.66;;;6.21;82.90
40872;BME280;26591;43.264;26.940;2024-02-28T05:29:53;99558.91;;;6.22;82.49
40872;BME280;26591;43.264;26.940;2024-02-28T05:32:18;99564.97;;;6.55;81.52
40872;BME280;26591;43.264;26.940;2024-02-28T05:34:44;99560.34;;;6.69;80.69
40872;BME280;26591;43.264;26.940;2024-02-28T05:37:09;99570.09;;;6.99;79.76
40872;BME280;26591;43.264;26.940;2024-02-28T05:39:34;99577.84;;;7.22;78.31
40872;BME280;26591;43.264;26.940;2024-02-28T05:42:00;99568.56;;;7.59;76.67
40872;BME280;26591;43.264;26.940;2024-02-28T05:44:26;99566.81;;;7.79;75.60
40872;BME280;26591;43.264;26.940;2024-02-28T05:46:51;99566.16;;;7.97;73.68
40872;BME280;26591;43.264;26.940;2024-02-28T05:49:17;99570.88;;;8.13;72.66
40872;BME280;26591;43.264;26.940;2024-02-28T05:51:42;99568.44;;;8.31;72.36
40872;BME280;26591;43.264;26.940;2024-02-28T05:54:07;99573.72;;;8.70;71.63
40872;BME280;26591;43.264;26.940;2024-02-28T05:56:33;99576.00;;;9.03;69.67
40872;BME280;26591;43.264;26.940;2024-02-28T05:58:58;99577.28;;;9.36;69.64
40872;BME280;26591;43.264;26.940;2024-02-28T06:01:24;99571.28;;;9.72;67.44
40872;BME280;26591;43.264;26.940;2024-02-28T06:03:49;99577.84;;;9.96;66.06
40872;BME280;26591;43.264;26.940;2024-02-28T06:06:16;99579.06;;;10.19;65.83
40872;BME280;26591;43.264;26.940;2024-02-28T06:08:44;99578.53;;;10.70;65.36
40872;BME280;26591;43.264;26.940;2024-02-28T06:11:10;99586.00;;;11.19;64.28
40872;BME280;26591;43.264;26.940;2024-02-28T06:13:36;99587.94;;;11.78;62.48
40872;BME280;26591;43.264;26.940;2024-02-28T06:16:01;99588.66;;;11.97;61.43
40872;BME280;26591;43.264;26.940;2024-02-28T06:18:27;99595.22;;;12.27;60.48
40872;BME280;26591;43.264;26.940;2024-02-28T06:20:53;99589.25;;;12.58;59.35
40872;BME280;26591;43.264;26.940;2024-02-28T06:23:22;99585.59;;;12.92;58.05
40872;BME280;26591;43.264;26.940;2024-02-28T06:25:47;99592.91;;;13.07;57.46
40872;BME280;26591;43.264;26.940;2024-02-28T06:28:13;99592.06;;;12.98;57.52
40872;BME280;26591;43.264;26.940;2024-02-28T06:30:39;99600.34;;;13.03;57.34
40872;BME280;26591;43.264;26.940;2024-02-28T06:33:04;99604.84;;;13.03;57.13
40872;BME280;26591;43.264;26.940;2024-02-28T06:35:30;99607.34;;;12.55;57.66
40872;BME280;26591;43.264;26.940;2024-02-28T06:37:56;99605.84;;;12.52;57.77
40872;BME280;26591;43.264;26.940;2024-02-28T06:40:21;99611.50;;;12.49;58.60
40872;BME280;26591;43.264;26.940;2024-02-28T06:42:47;99614.50;;;12.62;58.82
40872;BME280;26591;43.264;26.940;2024-02-28T06:45:12;99622.78;;;12.67;58.28
40872;BME280;26591;43.264;26.940;2024-02-28T06:47:38;99614.16;;;12.49;58.66
40872;BME280;26591;43.264;26.940;2024-02-28T06:50:04;99609.81;;;12.31;58.18
40872;BME280;26591;43.264;26.940;2024-02-28T06:52:30;99612.88;;;12.02;59.03
40872;BME280;26591;43.264;26.940;2024-02-28T06:54:56;99612.25;;;12.08;59.58
40872;BME280;26591;43.264;26.940;2024-02-28T06:57:21;99615.13;;;12.31;59.50
40872;BME280;26591;43.264;26.940;2024-02-28T06:59:47;99618.09;;;12.28;60.06
40872;BME280;26591;43.264;26.940;2024-02-28T07:02:14;99619.31;;;12.42;59.27
40872;BME280;26591;43.264;26.940;2024-02-28T07:04:40;99618.63;;;12.40;59.23
40872;BME280;26591;43.264;26.940;2024-02-28T07:07:06;99612.97;;;12.60;59.00
40872;BME280;26591;43.264;26.940;2024-02-28T07:09:31;99612.31;;;12.58;58.98
40872;BME280;26591;43.264;26.940;2024-02-28T07:11:58;99612.66;;;12.63;58.98
40872;BME280;26591;43.264;26.940;2024-02-28T07:14:26;99614.47;;;12.95;58.13
40872;BME280;26591;43.264;26.940;2024-02-28T07:16:52;99618.16;;;12.61;59.24
40872;BME280;26591;43.264;26.940;2024-02-28T07:19:18;99620.28;;;12.74;58.91
40872;BME280;26591;43.264;26.940;2024-02-28T07:21:44;99625.78;;;12.89;58.10
40872;BME280;26591;43.264;26.940;2024-02-28T07:24:10;99628.56;;;12.46;58.85
40872;BME280;26591;43.264;26.940;2024-02-28T07:26:36;99625.91;;;12.38;58.96
40872;BME280;26591;43.264;26.940;2024-02-28T07:29:01;99617.59;;;12.33;59.92
40872;BME280;26591;43.264;26.940;2024-02-28T07:31:27;99636.06;;;12.59;58.98
40872;BME280;26591;43.264;26.940;2024-02-28T07:33:52;99627.78;;;12.62;58.70
40872;BME280;26591;43.264;26.940;2024-02-28T07:36:18;99627.91;;;12.36;59.03
40872;BME280;26591;43.264;26.940;2024-02-28T07:38:43;99621.56;;;12.29;59.75
40872;BME280;26591;43.264;26.940;2024-02-28T07:41:09;99617.06;;;12.13;60.04
40872;BME280;26591;43.264;26.940;2024-02-28T07:43:35;99623.41;;;12.28;59.59
40872;BME280;26591;43.264;26.940;2024-02-28T07:46:10;99622.19;;;12.14;60.56
40872;BME280;26591;43.264;26.940;2024-02-28T07:48:37;99618.81;;;12.47;59.95
40872;BME280;26591;43.264;26.940;2024-02-28T07:51:08;99615.31;;;12.88;59.10
40872;BME280;26591;43.264;26.940;2024-02-28T07:53:35;99620.06;;;13.25;57.94
40872;BME280;26591;43.264;26.940;2024-02-28T07:56:00;99618.41;;;13.49;57.62
40872;BME280;26591;43.264;26.940;2024-02-28T07:58:26;99615.66;;;13.74;57.14
40872;BME280;26591;43.264;26.940;2024-02-28T08:00:51;99617.19;;;13.68;56.12
40872;BME280;26591;43.264;26.940;2024-02-28T08:03:19;99614.69;;;13.67;56.47
40872;BME280;26591;43.264;26.940;2024-02-28T08:05:45;99612.25;;;13.97;56.15
40872;BME280;26591;43.264;26.940;2024-02-28T08:08:11;99614.56;;;13.52;56.97
40872;BME280;26591;43.264;26.940;2024-02-28T08:10:37;99617.22;;;13.60;56.51
40872;BME280;26591;43.264;26.940;2024-02-28T08:13:03;99615.91;;;13.31;58.00
40872;BME280;26591;43.264;26.940;2024-02-28T08:15:29;99622.91;;;13.24;57.93
40872;BME280;26591;43.264;26.940;2024-02-28T08:17:54;99617.91;;;13.46;57.96
40872;BME280;26591;43.264;26.940;2024-02-28T08:20:20;99615.56;;;13.51;57.54
40872;BME280;26591;43.264;26.940;2024-02-28T08:22:46;99615.25;;;13.85;57.44
40872;BME280;26591;43.264;26.940;2024-02-28T08:25:12;99620.69;;;14.32;56.04
40872;BME280;26591;43.264;26.940;2024-02-28T08:27:38;99620.91;;;14.45;55.56
40872;BME280;26591;43.264;26.940;2024-02-28T08:30:04;99617.69;;;14.27;55.47
40872;BME280;26591;43.264;26.940;2024-02-28T08:32:31;99618.09;;;14.15;55.25
40872;BME280;26591;43.264;26.940;2024-02-28T08:34:56;99617.78;;;14.42;54.98
40872;BME280;26591;43.264;26.940;2024-02-28T08:37:23;99622.47;;;14.86;54.29
40872;BME280;26591;43.264;26.940;2024-02-28T08:39:49;99619.09;;;14.92;53.44
40872;BME280;26591;43.264;26.940;2024-02-28T08:42:14;99619.03;;;15.01;54.30
40872;BME280;26591;43.264;26.940;2024-02-28T08:44:40;99614.34;;;15.03;53.02
40872;BME280;26591;43.264;26.940;2024-02-28T08:47:05;99620.22;;;14.98;53.91
40872;BME280;26591;43.264;26.940;2024-02-28T08:49:33;99626.41;;;15.14;53.69
40872;BME280;26591;43.264;26.940;2024-02-28T08:51:58;99621.13;;;14.90;53.20
40872;BME280;26591;43.264;26.940;2024-02-28T08:54:24;99622.88;;;14.98;53.85
40872;BME280;26591;43.264;26.940;2024-02-28T08:56:51;99624.84;;;15.19;52.88
40872;BME280;26591;43.264;26.940;2024-02-28T08:59:17;99623.84;;;15.20;53.65
40872;BME280;26591;43.264;26.940;2024-02-28T09:01:42;99627.13;;;15.07;53.78
40872;BME280;26591;43.264;26.940;2024-02-28T09:04:08;99626.13;;;15.08;53.96
40872;BME280;26591;43.264;26.940;2024-02-28T09:06:35;99626.44;;;14.44;55.03
40872;BME280;26591;43.264;26.940;2024-02-28T09:09:01;99626.75;;;14.17;56.08
40872;BME280;26591;43.264;26.940;2024-02-28T09:11:26;99625.81;;;14.57;55.62
40872;BME280;26591;43.264;26.940;2024-02-28T09:13:52;99620.28;;;14.90;54.88
40872;BME280;26591;43.264;26.940;2024-02-28T09:16:18;99619.47;;;14.89;55.08
40872;BME280;26591;43.264;26.940;2024-02-28T09:18:44;99613.03;;;14.99;55.03
40872;BME280;26591;43.264;26.940;2024-02-28T09:21:09;99613.91;;;15.14;54.75
40872;BME280;26591;43.264;26.940;2024-02-28T09:23:36;99624.69;;;15.36;54.11
40872;BME280;26591;43.264;26.940;2024-02-28T09:26:05;99621.91;;;15.59;53.39
40872;BME280;26591;43.264;26.940;2024-02-28T09:28:31;99619.53;;;15.79;53.38
40872;BME280;26591;43.264;26.940;2024-02-28T09:30:57;99624.59;;;15.44;53.64
40872;BME280;26591;43.264;26.940;2024-02-28T09:33:23;99625.78;;;15.41;53.59
40872;BME280;26591;43.264;26.940;2024-02-28T09:35:48;99621.81;;;15.52;53.46
40872;BME280;26591;43.264;26.940;2024-02-28T09:38:14;99619.16;;;15.67;53.28
40872;BME280;26591;43.264;26.940;2024-02-28T09:40:40;99626.00;;;15.85;53.27
40872;BME280;26591;43.264;26.940;2024-02-28T09:43:11;99617.28;;;16.13;52.45
40872;BME280;26591;43.264;26.940;2024-02-28T09:45:40;99620.66;;;16.22;52.40
40872;BME280;26591;43.264;26.940;2024-02-28T09:48:07;99615.69;;;16.19;51.64
40872;BME280;26591;43.264;26.940;2024-02-28T09:50:32;99610.72;;;16.15;51.64
40872;BME280;26591;43.264;26.940;2024-02-28T09:52:58;99602.22;;;16.48;51.36
40872;BME280;26591;43.264;26.940;2024-02-28T09:55:24;99607.06;;;16.38;51.26
40872;BME280;26591;43.264;26.940;2024-02-28T09:57:51;99610.81;;;16.44;51.72
40872;BME280;26591;43.264;26.940;2024-02-28T10:00:19;99603.88;;;16.71;50.87
40872;BME280;26591;43.264;26.940;2024-02-28T10:02:47;99608.81;;;16.74;51.00
40872;BME280;26591;43.264;26.940;2024-02-28T10:05:17;99605.59;;;16.36;51.36
40872;BME280;26591;43.264;26.940;2024-02-28T10:07:45;99605.22;;;16.60;51.58
40872;BME280;26591;43.264;26.940;2024-02-28T10:10:11;99601.78;;;16.45;51.32
40872;BME280;26591;43.264;26.940;2024-02-28T10:12:41;99603.31;;;16.54;50.64
40872;BME280;26591;43.264;26.940;2024-02-28T10:15:07;99591.91;;;15.72;53.06
40872;BME280;26591;43.264;26.940;2024-02-28T10:17:34;99590.50;;;16.28;51.57
40872;BME280;26591;43.264;26.940;2024-02-28T10:20:00;99594.78;;;16.66;50.80
40872;BME280;26591;43.264;26.940;2024-02-28T10:22:25;99591.72;;;16.69;51.26
40872;BME280;26591;43.264;26.940;2024-02-28T10:24:57;99578.41;;;16.97;50.43
40872;BME280;26591;43.264;26.940;2024-02-28T10:27:23;99580.97;;;17.12;50.07
40872;BME280;26591;43.264;26.940;2024-02-28T10:29:49;99579.91;;;17.35;49.48
40872;BME280;26591;43.264;26.940;2024-02-28T10:32:14;99582.06;;;17.60;49.15
40872;BME280;26591;43.264;26.940;2024-02-28T10:34:40;99569.56;;;17.80;48.60
40872;BME280;26591;43.264;26.940;2024-02-28T10:37:06;99577.78;;;17.65;48.46
40872;BME280;26591;43.264;26.940;2024-02-28T10:39:32;99566.91;;;17.80;48.80
40872;BME280;26591;43.264;26.940;2024-02-28T10:42:00;99566.50;;;17.83;48.21
40872;BME280;26591;43.264;26.940;2024-02-28T10:44:27;99558.44;;;17.77;49.24
40872;BME280;26591;43.264;26.940;2024-02-28T10:46:53;99562.22;;;17.96;48.72
40872;BME280;26591;43.264;26.940;2024-02-28T10:49:19;99557.81;;;17.75;49.29
40872;BME280;26591;43.264;26.940;2024-02-28T10:51:46;99550.69;;;17.89;48.58
40872;BME280;26591;43.264;26.940;2024-02-28T10:54:15;99553.97;;;17.91;49.12
40872;BME280;26591;43.264;26.940;2024-02-28T10:56:41;99543.13;;;18.06;49.10
40872;BME280;26591;43.264;26.940;2024-02-28T10:59:12;99539.25;;;18.22;48.83
40872;BME280;26591;43.264;26.940;2024-02-28T11:01:44;99533.41;;;17.98;48.76
40872;BME280;26591;43.264;26.940;2024-02-28T11:04:11;99529.97;;;18.18;48.72
40872;BME280;26591;43.264;26.940;2024-02-28T11:06:51;99531.22;;;18.62;48.08
40872;BME280;26591;43.264;26.940;2024-02-28T11:09:21;99524.00;;;18.89;47.14
40872;BME280;26591;43.264;26.940;2024-02-28T11:11:51;99514.13;;;18.36;47.95
40872;BME280;26591;43.264;26.940;2024-02-28T11:14:17;99513.91;;;18.24;48.26
40872;BME280;26591;43.264;26.940;2024-02-28T11:16:47;99516.78;;;18.76;47.69
40872;BME280;26591;43.264;26.940;2024-02-28T11:19:20;99521.38;;;19.42;46.15
40872;BME280;26591;43.264;26.940;2024-02-28T11:21:52;99520.97;;;19.45;46.03
40872;BME280;26591;43.264;26.940;2024-02-28T11:24:22;99518.41;;;19.11;46.30
40872;BME280;26591;43.264;26.940;2024-02-28T11:26:48;99513.09;;;19.50;45.89
40872;BME280;26591;43.264;26.940;2024-02-28T11:29:13;99513.69;;;20.04;44.89
40872;BME280;26591;43.264;26.940;2024-02-28T11:31:39;99513.34;;;19.87;44.77
40872;BME280;26591;43.264;26.940;2024-02-28T11:34:04;99495.06;;;19.64;45.91
40872;BME280;26591;43.264;26.940;2024-02-28T11:36:30;99498.03;;;19.94;45.47
40872;BME280;26591;43.264;26.940;2024-02-28T11:38:57;99493.53;;;19.36;45.81
40872;BME280;26591;43.264;26.940;2024-02-28T11:41:26;99493.75;;;19.87;45.34
40872;BME280;26591;43.264;26.940;2024-02-28T11:43:55;99484.22;;;19.84;45.09
40872;BME280;26591;43.264;26.940;2024-02-28T11:46:20;99487.09;;;20.21;44.19
40872;BME280;26591;43.264;26.940;2024-02-28T11:48:46;99486.19;;;20.34;44.55
40872;BME280;26591;43.264;26.940;2024-02-28T11:51:11;99478.13;;;20.34;44.02
40872;BME280;26591;43.264;26.940;2024-02-28T11:53:37;99475.63;;;20.83;43.12
40872;BME280;26591;43.264;26.940;2024-02-28T11:56:02;99485.28;;;20.66;43.86
40872;BME280;26591;43.264;26.940;2024-02-28T11:58:29;99483.63;;;20.90;43.28
40872;BME280;26591;43.264;26.940;2024-02-28T12:00:54;99479.59;;;20.74;43.94
40872;BME280;26591;43.264;26.940;2024-02-28T12:03:24;99476.34;;;20.21;45.15
40872;BME280;26591;43.264;26.940;2024-02-28T12:05:50;99481.34;;;20.43;44.75
40872;BME280;26591;43.264;26.940;2024-02-28T12:08:21;99472.59;;;20.73;43.70
40872;BME280;26591;43.264;26.940;2024-02-28T12:10:47;99466.66;;;21.08;43.69
40872;BME280;26591;43.264;26.940;2024-02-28T12:13:22;99465.88;;;20.13;44.80
40872;BME280;26591;43.264;26.940;2024-02-28T12:15:47;99463.22;;;20.57;44.48
40872;BME280;26591;43.264;26.940;2024-02-28T12:18:16;99462.09;;;21.09;43.62
40872;BME280;26591;43.264;26.940;2024-02-28T12:20:41;99457.66;;;21.33;43.05
40872;BME280;26591;43.264;26.940;2024-02-28T12:23:07;99458.13;;;21.11;43.17
40872;BME280;26591;43.264;26.940;2024-02-28T12:25:33;99457.97;;;21.06;43.57
40872;BME280;26591;43.264;26.940;2024-02-28T12:28:00;99451.03;;;21.17;43.19
40872;BME280;26591;43.264;26.940;2024-02-28T12:30:26;99445.38;;;21.37;42.86
40872;BME280;26591;43.264;26.940;2024-02-28T12:32:52;99442.16;;;21.16;42.84
40872;BME280;26591;43.264;26.940;2024-02-28T12:35:18;99444.06;;;21.28;43.18
40872;BME280;26591;43.264;26.940;2024-02-28T12:37:44;99445.97;;;20.21;43.95
40872;BME280;26591;43.264;26.940;2024-02-28T12:40:09;99435.47;;;20.63;43.26
40872;BME280;26591;43.264;26.940;2024-02-28T12:42:35;99433.94;;;20.49;43.57
40872;BME280;26591;43.264;26.940;2024-02-28T12:45:02;99431.22;;;20.93;42.47
40872;BME280;26591;43.264;26.940;2024-02-28T12:47:28;99431.53;;;20.84;43.39
40872;BME280;26591;43.264;26.940;2024-02-28T12:49:55;99424.66;;;20.45;44.20
40872;BME280;26591;43.264;26.940;2024-02-28T12:52:24;99417.09;;;20.35;44.67